createdAt,value
2022-11-05T00:02:39.393Z,10.96
2022-11-05T00:05:25.650Z,10.84
2022-11-05T00:08:12.449Z,10.51
2022-11-05T00:10:40.227Z,10.80
2022-11-05T00:13:36.631Z,10.70
2022-11-05T00:16:36.482Z,10.55
2022-11-05T00:19:10.155Z,10.73
2022-11-05T00:22:02.144Z,10.80
2022-11-05T00:24:47.347Z,10.83
2022-11-05T00:27:14.923Z,10.96
2022-11-05T00:29:43.830Z,11.00
2022-11-05T00:32:11.420Z,10.96
2022-11-05T00:34:39.033Z,10.89
2022-11-05T00:37:06.841Z,10.99
2022-11-05T00:39:34.453Z,11.03
2022-11-05T00:42:21.627Z,11.13
2022-11-05T00:45:02.638Z,10.86
2022-11-05T00:47:48.037Z,10.78
2022-11-05T00:50:15.816Z,10.71
2022-11-05T00:52:59.503Z,10.81
2022-11-05T00:55:34.629Z,10.71
2022-11-05T00:58:03.908Z,10.59
2022-11-05T01:00:35.074Z,10.51
2022-11-05T01:03:05.166Z,10.67
2022-11-05T01:05:34.248Z,10.48
2022-11-05T01:08:02.263Z,10.85
2022-11-05T01:10:30.215Z,10.65
2022-11-05T01:12:58.991Z,10.31
2022-11-05T01:15:26.702Z,10.42
2022-11-05T01:17:55.604Z,10.13
2022-11-05T01:20:23.280Z,9.90
2022-11-05T01:22:50.850Z,10.23
2022-11-05T01:25:18.671Z,9.92
2022-11-05T01:27:46.581Z,10.25
2022-11-05T01:30:15.026Z,10.45
2022-11-05T01:32:42.611Z,10.30
2022-11-05T01:35:18.335Z,10.34
2022-11-05T01:37:46.672Z,10.27
2022-11-05T01:40:15.978Z,10.18
2022-11-05T01:42:43.655Z,10.30
2022-11-05T01:45:17.868Z,9.59
2022-11-05T01:48:01.582Z,10.03
2022-11-05T01:50:38.450Z,9.96
2022-11-05T01:53:13.996Z,10.07
2022-11-05T01:55:45.103Z,9.87
2022-11-05T01:58:16.027Z,9.94
2022-11-05T02:00:44.394Z,9.87
2022-11-05T02:03:14.133Z,9.67
2022-11-05T02:05:43.986Z,9.79
2022-11-05T02:08:20.493Z,9.78
2022-11-05T02:10:49.507Z,9.82
2022-11-05T02:13:17.064Z,9.62
2022-11-05T02:15:54.804Z,9.62
2022-11-05T02:18:32.459Z,9.81
2022-11-05T02:21:18.431Z,9.67
2022-11-05T02:24:26.244Z,9.66
2022-11-05T02:27:08.946Z,9.86
2022-11-05T02:30:20.395Z,9.60
2022-11-05T02:33:19.841Z,9.45
2022-11-05T02:36:11.607Z,9.66
2022-11-05T02:38:44.126Z,9.53
2022-11-05T02:41:19.502Z,9.60
2022-11-05T02:43:56.550Z,9.40
2022-11-05T02:46:35.191Z,9.53
2022-11-05T02:49:14.477Z,9.45
2022-11-05T02:51:49.043Z,9.72
2022-11-05T02:54:22.801Z,9.50
2022-11-05T02:56:53.600Z,9.58
2022-11-05T02:59:21.238Z,9.53
2022-11-05T03:01:52.224Z,9.64
2022-11-05T03:04:22.817Z,9.67
2022-11-05T03:07:05.327Z,9.54
2022-11-05T03:10:02.159Z,9.70
2022-11-05T03:12:39.101Z,9.54
2022-11-05T03:15:17.463Z,9.61
2022-11-05T03:18:01.972Z,9.67
2022-11-05T03:20:36.315Z,9.84
2022-11-05T03:23:10.375Z,9.63
2022-11-05T03:25:42.810Z,9.38
2022-11-05T03:28:11.884Z,9.66
2022-11-05T03:30:41.945Z,9.68
2022-11-05T03:33:17.180Z,9.57
2022-11-05T03:35:48.066Z,9.48
2022-11-05T03:38:21.357Z,9.52
2022-11-05T03:40:53.627Z,9.41
2022-11-05T03:43:24.512Z,9.11
2022-11-05T03:45:56.620Z,9.26
2022-11-05T03:48:29.556Z,9.49
2022-11-05T03:51:03.652Z,9.54
2022-11-05T03:53:37.557Z,9.54
2022-11-05T03:56:10.010Z,9.23
2022-11-05T03:58:41.789Z,9.53
2022-11-05T04:01:09.857Z,9.46
2022-11-05T04:03:39.064Z,9.59
2022-11-05T04:06:26.266Z,9.49
2022-11-05T04:09:11.576Z,9.12
2022-11-05T04:11:56.854Z,9.40
2022-11-05T04:14:26.147Z,9.27
2022-11-05T04:17:09.921Z,9.31
2022-11-05T04:19:58.137Z,9.20
2022-11-05T04:22:44.908Z,9.00
2022-11-05T04:25:13.548Z,9.30
2022-11-05T04:27:41.372Z,9.29
2022-11-05T04:30:21.609Z,9.30
2022-11-05T04:33:06.899Z,9.05
2022-11-05T04:35:37.899Z,9.20
2022-11-05T04:38:07.428Z,9.07
2022-11-05T04:40:35.868Z,9.04
2022-11-05T04:43:03.943Z,9.14
2022-11-05T04:45:34.171Z,8.97
2022-11-05T04:48:01.816Z,8.73
2022-11-05T04:50:29.813Z,8.95
2022-11-05T04:52:58.812Z,9.14
2022-11-05T04:55:26.968Z,9.27
2022-11-05T04:57:55.966Z,9.07
2022-11-05T05:00:25.105Z,9.17
2022-11-05T05:02:52.936Z,8.77
2022-11-05T05:05:21.910Z,8.53
2022-11-05T05:07:49.503Z,8.50
2022-11-05T05:10:18.849Z,8.86
2022-11-05T05:12:46.434Z,8.73
2022-11-05T05:15:14.229Z,8.97
2022-11-05T05:17:41.831Z,8.84
2022-11-05T05:20:41.610Z,8.48
2022-11-05T05:23:09.384Z,8.57
2022-11-05T05:25:38.509Z,8.74
2022-11-05T05:28:06.352Z,8.66
2022-11-05T05:30:33.909Z,8.86
2022-11-05T05:33:03.753Z,8.99
2022-11-05T05:35:31.487Z,8.72
2022-11-05T05:37:59.111Z,8.95
2022-11-05T05:40:27.519Z,9.06
2022-11-05T05:42:56.792Z,8.95
2022-11-05T05:45:24.418Z,8.88
2022-11-05T05:47:51.977Z,8.92
2022-11-05T05:50:19.537Z,8.90
2022-11-05T05:52:47.112Z,8.66
2022-11-05T05:55:15.293Z,9.02
2022-11-05T05:57:42.859Z,8.78
2022-11-05T06:00:13.826Z,8.93
2022-11-05T06:02:41.653Z,8.40
2022-11-05T06:05:11.072Z,8.53
2022-11-05T06:07:38.675Z,8.53
2022-11-05T06:10:07.367Z,8.77
2022-11-05T06:12:34.966Z,8.57
2022-11-05T06:15:04.112Z,8.71
2022-11-05T06:17:34.009Z,8.78
2022-11-05T06:20:01.755Z,8.99
2022-11-05T06:22:29.433Z,8.84
2022-11-05T06:24:56.984Z,8.69
2022-11-05T06:27:24.608Z,8.71
2022-11-05T06:29:52.181Z,8.40
2022-11-05T06:32:19.830Z,8.58
2022-11-05T06:34:48.787Z,8.11
2022-11-05T06:37:16.456Z,8.30
2022-11-05T06:39:44.053Z,8.51
2022-11-05T06:42:18.286Z,8.42
2022-11-05T06:44:46.453Z,8.27
2022-11-05T06:47:14.079Z,8.45
2022-11-05T06:49:41.702Z,8.49
2022-11-05T06:52:10.649Z,8.77
2022-11-05T06:54:38.282Z,8.65
2022-11-05T06:57:06.180Z,8.63
2022-11-05T06:59:34.368Z,8.87
2022-11-05T07:02:02.144Z,8.53
2022-11-05T07:04:29.750Z,8.83
2022-11-05T07:06:57.330Z,8.69
2022-11-05T07:09:26.280Z,8.83
2022-11-05T07:11:53.912Z,9.00
2022-11-05T07:14:21.488Z,8.75
2022-11-05T07:16:49.104Z,8.48
2022-11-05T07:19:16.692Z,9.10
2022-11-05T07:21:44.268Z,9.52
2022-11-05T07:24:11.987Z,10.78
2022-11-05T07:26:40.917Z,11.14
2022-11-05T07:29:08.525Z,12.79
2022-11-05T07:31:36.217Z,13.25
2022-11-05T07:34:03.941Z,14.45
2022-11-05T07:36:31.618Z,14.73
2022-11-05T07:39:00.655Z,15.03
2022-11-05T07:41:29.236Z,15.15
2022-11-05T07:43:58.234Z,15.94
2022-11-05T07:46:25.829Z,15.26
2022-11-05T07:48:53.419Z,16.62
2022-11-05T07:51:21.061Z,16.15
2022-11-05T07:53:49.162Z,16.08
2022-11-05T07:56:16.922Z,16.95
2022-11-05T07:58:44.513Z,16.82
2022-11-05T08:01:13.537Z,16.34
2022-11-05T08:03:41.440Z,17.22
2022-11-05T08:06:09.092Z,15.55
2022-11-05T08:08:36.757Z,16.06
2022-11-05T08:11:05.328Z,17.76
2022-11-05T08:13:33.119Z,15.46
2022-11-05T08:16:01.945Z,17.19
2022-11-05T08:18:32.312Z,16.81
2022-11-05T08:21:01.733Z,16.57
2022-11-05T08:23:31.103Z,16.43
2022-11-05T08:25:59.746Z,17.98
2022-11-05T08:28:27.599Z,18.84
2022-11-05T08:30:57.404Z,17.77
2022-11-05T08:33:25.834Z,14.74
2022-11-05T08:35:54.758Z,14.07
2022-11-05T08:38:22.358Z,13.40
2022-11-05T08:40:56.455Z,13.08
2022-11-05T08:43:24.346Z,12.24
2022-11-05T08:45:51.952Z,12.43
2022-11-05T08:48:19.950Z,11.80
2022-11-05T08:50:49.246Z,12.08
2022-11-05T08:53:18.388Z,11.52
2022-11-05T08:55:47.766Z,11.81
2022-11-05T08:58:17.601Z,11.81
2022-11-05T09:00:47.114Z,12.12
2022-11-05T09:03:15.753Z,12.32
2022-11-05T09:05:43.881Z,12.24
2022-11-05T09:08:13.398Z,12.02
2022-11-05T09:10:43.046Z,12.02
2022-11-05T09:13:17.936Z,11.89
2022-11-05T09:15:47.008Z,12.16
2022-11-05T09:18:15.776Z,12.26
2022-11-05T09:20:43.577Z,12.40
2022-11-05T09:23:12.727Z,12.59
2022-11-05T09:25:41.882Z,11.85
2022-11-05T09:28:15.903Z,12.00
2022-11-05T09:30:46.403Z,11.82
2022-11-05T09:33:14.584Z,12.36
2022-11-05T09:35:42.748Z,12.71
2022-11-05T09:38:10.596Z,12.73
2022-11-05T09:40:44.072Z,12.84
2022-11-05T09:43:18.970Z,12.80
2022-11-05T09:45:50.419Z,12.44
2022-11-05T09:48:20.871Z,12.87
2022-11-05T09:50:49.686Z,12.73
2022-11-05T09:53:19.722Z,12.89
2022-11-05T09:55:50.921Z,12.95
2022-11-05T09:58:28.364Z,13.02
2022-11-05T10:00:57.203Z,12.87
2022-11-05T10:03:27.816Z,12.50
2022-11-05T10:06:01.763Z,12.63
2022-11-05T10:08:33.730Z,12.34
2022-11-05T10:11:08.334Z,12.58
2022-11-05T10:13:41.157Z,12.68
2022-11-05T10:16:20.896Z,12.83
2022-11-05T10:18:53.040Z,12.87
2022-11-05T10:21:44.301Z,12.84
2022-11-05T10:24:15.209Z,12.81
2022-11-05T10:26:47.566Z,13.25
2022-11-05T10:29:21.396Z,13.48
2022-11-05T10:31:49.713Z,13.45
2022-11-05T10:34:17.863Z,13.46
2022-11-05T10:36:45.535Z,13.39
2022-11-05T10:39:15.065Z,13.90
2022-11-05T10:41:59.220Z,14.20
2022-11-05T10:44:35.198Z,13.92
2022-11-05T10:47:20.579Z,13.66
2022-11-05T10:49:57.678Z,13.58
2022-11-05T10:52:29.180Z,13.09
2022-11-05T10:55:01.370Z,13.26
2022-11-05T10:57:35.794Z,13.43
2022-11-05T11:00:28.766Z,13.36
2022-11-05T11:02:59.504Z,13.47
2022-11-05T11:05:29.940Z,13.66
2022-11-05T11:08:02.279Z,13.38
2022-11-05T11:10:33.910Z,13.60
2022-11-05T11:13:03.241Z,13.87
2022-11-05T11:15:33.473Z,14.04
2022-11-05T11:18:25.614Z,14.27
2022-11-05T11:20:53.384Z,13.86
2022-11-05T11:23:20.953Z,14.04
2022-11-05T11:25:53.099Z,14.45
2022-11-05T11:28:26.744Z,14.47
2022-11-05T11:31:07.772Z,13.83
2022-11-05T11:33:37.687Z,14.20
2022-11-05T11:36:06.646Z,14.27
2022-11-05T11:38:36.993Z,14.37
2022-11-05T11:41:23.847Z,14.08
2022-11-05T11:43:57.066Z,13.76
2022-11-05T11:46:24.765Z,14.21
2022-11-05T11:48:52.630Z,14.39
2022-11-05T11:51:31.076Z,14.54
2022-11-05T11:53:59.992Z,14.10
2022-11-05T11:56:28.982Z,14.25
2022-11-05T11:59:02.143Z,14.49
2022-11-05T12:01:49.708Z,14.51
2022-11-05T12:04:30.234Z,14.60
2022-11-05T12:07:09.631Z,14.43
2022-11-05T12:09:54.089Z,14.65
2022-11-05T12:12:27.041Z,14.74
2022-11-05T12:14:59.624Z,14.53
2022-11-05T12:17:40.038Z,14.77
2022-11-05T12:20:26.013Z,14.56
2022-11-05T12:23:08.481Z,13.57
2022-11-05T12:25:45.703Z,14.97
2022-11-05T12:28:57.871Z,14.39
2022-11-05T12:31:35.707Z,14.96
2022-11-05T12:34:17.603Z,15.19
2022-11-05T12:37:03.870Z,14.57
2022-11-05T12:40:08.563Z,14.91
2022-11-05T12:42:52.880Z,14.74
2022-11-05T12:45:30.712Z,14.74
2022-11-05T12:48:12.822Z,14.41
2022-11-05T12:50:46.126Z,14.27
2022-11-05T12:53:32.403Z,14.93
2022-11-05T12:56:04.610Z,14.28
2022-11-05T12:58:37.375Z,14.51
2022-11-05T13:01:12.803Z,14.09
2022-11-05T13:03:46.081Z,14.80
2022-11-05T13:06:16.964Z,14.91
2022-11-05T13:08:53.335Z,14.62
2022-11-05T13:11:26.387Z,14.75
2022-11-05T13:14:12.928Z,14.48
2022-11-05T13:16:44.792Z,14.50
2022-11-05T13:19:19.921Z,14.79
2022-11-05T13:21:51.991Z,14.23
2022-11-05T13:24:24.511Z,14.17
2022-11-05T13:26:56.396Z,14.39
2022-11-05T13:29:32.323Z,14.58
2022-11-05T13:32:05.656Z,14.37
2022-11-05T13:34:37.546Z,14.29
2022-11-05T13:37:26.166Z,14.19
2022-11-05T13:39:57.058Z,14.71
2022-11-05T13:42:58.419Z,14.10
2022-11-05T13:45:55.238Z,14.32
2022-11-05T13:48:39.476Z,14.61
2022-11-05T13:51:39.121Z,14.58
2022-11-05T13:54:44.477Z,14.82
2022-11-05T13:57:32.160Z,14.80
2022-11-05T14:00:08.016Z,14.68
2022-11-05T14:02:40.144Z,14.73
2022-11-05T14:05:20.917Z,14.78
2022-11-05T14:07:50.437Z,14.75
2022-11-05T14:10:26.914Z,14.36
2022-11-05T14:12:56.717Z,14.21
2022-11-05T14:15:28.375Z,13.95
2022-11-05T14:17:59.280Z,14.46
2022-11-05T14:20:40.409Z,14.23
2022-11-05T14:23:47.552Z,14.12
2022-11-05T14:26:20.617Z,14.54
2022-11-05T14:28:50.527Z,14.36
2022-11-05T14:31:54.627Z,14.49
2022-11-05T14:34:24.772Z,14.02
2022-11-05T14:37:22.601Z,13.96
2022-11-05T14:39:51.004Z,14.03
2022-11-05T14:42:25.275Z,13.74
2022-11-05T14:45:08.855Z,13.80
2022-11-05T14:47:39.738Z,14.01
2022-11-05T14:50:19.062Z,13.85
2022-11-05T14:52:53.156Z,13.74
2022-11-05T14:55:29.344Z,13.80
2022-11-05T14:58:28.156Z,13.49
2022-11-05T15:00:57.583Z,13.38
2022-11-05T15:04:00.419Z,13.36
2022-11-05T15:06:31.406Z,13.04
2022-11-05T15:09:13.771Z,13.19
2022-11-05T15:11:46.600Z,13.33
2022-11-05T15:14:24.145Z,12.95
2022-11-05T15:16:54.452Z,13.20
2022-11-05T15:19:25.906Z,12.86
2022-11-05T15:21:57.670Z,13.34
2022-11-05T15:24:28.108Z,13.32
2022-11-05T15:27:03.990Z,12.90
2022-11-05T15:29:34.184Z,12.69
2022-11-05T15:32:02.074Z,13.11
2022-11-05T15:34:31.978Z,12.78
2022-11-05T15:37:01.688Z,12.90
2022-11-05T15:39:39.493Z,12.65
2022-11-05T15:42:13.327Z,12.92
2022-11-05T15:44:44.164Z,13.18
2022-11-05T15:47:21.617Z,12.73
2022-11-05T15:49:51.756Z,12.50
2022-11-05T15:52:21.613Z,12.89
2022-11-05T15:55:07.746Z,12.99
2022-11-05T15:57:40.026Z,12.54
2022-11-05T16:00:18.175Z,12.91
2022-11-05T16:02:53.645Z,12.87
2022-11-05T16:05:22.190Z,12.49
2022-11-05T16:07:50.091Z,12.50
2022-11-05T16:10:20.615Z,12.31
2022-11-05T16:12:48.544Z,12.79
2022-11-05T16:15:23.840Z,12.83
2022-11-05T16:17:54.552Z,13.09
2022-11-05T16:20:26.356Z,12.79
2022-11-05T16:22:55.783Z,13.00
2022-11-05T16:25:38.196Z,13.07
2022-11-05T16:28:08.223Z,12.89
2022-11-05T16:30:37.166Z,13.08
2022-11-05T16:33:07.437Z,12.49
2022-11-05T16:35:40.991Z,12.85
2022-11-05T16:38:13.044Z,12.37
2022-11-05T16:40:41.050Z,12.62
2022-11-05T16:43:18.263Z,12.22
2022-11-05T16:45:48.201Z,12.64
2022-11-05T16:48:17.236Z,12.64
2022-11-05T16:50:45.970Z,12.30
2022-11-05T16:53:13.838Z,12.44
2022-11-05T16:55:43.552Z,12.47
2022-11-05T16:58:19.625Z,12.19
2022-11-05T17:00:50.155Z,12.47
2022-11-05T17:03:18.516Z,12.23
2022-11-05T17:05:46.567Z,12.70
2022-11-05T17:08:15.447Z,12.44
2022-11-05T17:10:44.060Z,12.25
2022-11-05T17:13:15.233Z,12.43
2022-11-05T17:15:44.106Z,12.29
2022-11-05T17:18:18.105Z,12.32
2022-11-05T17:20:48.502Z,12.58
2022-11-05T17:23:18.537Z,12.23
2022-11-05T17:25:49.766Z,12.24
2022-11-05T17:28:18.248Z,12.09
2022-11-05T17:30:52.298Z,12.46
2022-11-05T17:33:23.502Z,12.35
2022-11-05T17:35:52.444Z,12.12
2022-11-05T17:38:20.909Z,12.26
2022-11-05T17:40:48.675Z,11.86
2022-11-05T17:43:16.493Z,12.10
2022-11-05T17:45:45.169Z,12.00
2022-11-05T17:48:13.750Z,12.13
2022-11-05T17:50:44.227Z,11.64
2022-11-05T17:53:13.617Z,12.03
2022-11-05T17:55:42.537Z,11.70
2022-11-05T17:58:10.673Z,11.56
2022-11-05T18:00:39.246Z,11.63
2022-11-05T18:03:06.846Z,11.87
2022-11-05T18:05:35.600Z,11.67
2022-11-05T18:08:05.410Z,11.70
2022-11-05T18:10:33.669Z,11.72
2022-11-05T18:13:01.264Z,11.78
2022-11-05T18:15:29.247Z,11.43
2022-11-05T18:17:56.893Z,11.71
2022-11-05T18:20:24.624Z,11.69
2022-11-05T18:22:52.555Z,11.64
2022-11-05T18:25:21.524Z,11.86
2022-11-05T18:27:49.288Z,11.67
2022-11-05T18:30:16.952Z,11.76
2022-11-05T18:32:45.413Z,11.40
2022-11-05T18:35:14.602Z,11.71
2022-11-05T18:37:42.303Z,11.69
2022-11-05T18:40:10.891Z,11.65
2022-11-05T18:42:39.841Z,11.56
2022-11-05T18:45:09.238Z,11.62
2022-11-05T18:47:37.072Z,11.96
2022-11-05T18:50:06.270Z,11.72
2022-11-05T18:52:34.030Z,11.89
2022-11-05T18:55:01.664Z,11.41
2022-11-05T18:57:29.576Z,11.70
2022-11-05T18:59:58.631Z,11.71
2022-11-05T19:02:26.612Z,11.39
2022-11-05T19:05:27.392Z,11.55
2022-11-05T19:07:41.882Z,11.44
2022-11-05T19:10:10.350Z,11.61
2022-11-05T19:12:37.982Z,12.03
2022-11-05T19:15:08.323Z,11.73
2022-11-05T19:17:36.619Z,11.52
2022-11-05T19:20:05.381Z,11.69
2022-11-05T19:22:33.166Z,11.12
2022-11-05T19:25:01.505Z,11.27
2022-11-05T19:27:29.309Z,11.81
2022-11-05T19:29:56.940Z,11.86
2022-11-05T19:32:25.927Z,11.98
2022-11-05T19:34:53.481Z,11.63
2022-11-05T19:37:21.024Z,11.93
2022-11-05T19:39:48.634Z,11.43
2022-11-05T19:42:16.312Z,11.19
2022-11-05T19:44:44.122Z,11.71
2022-11-05T19:47:11.984Z,11.70
2022-11-05T19:49:41.127Z,11.84
2022-11-05T19:52:08.697Z,11.88
2022-11-05T19:54:36.460Z,12.15
2022-11-05T19:57:04.163Z,11.89
2022-11-05T19:59:32.209Z,11.52
2022-11-05T20:01:59.946Z,12.02
2022-11-05T20:04:27.756Z,11.27
2022-11-05T20:06:56.727Z,11.35
2022-11-05T20:09:24.584Z,11.49
2022-11-05T20:11:54.143Z,11.51
2022-11-05T20:14:21.910Z,11.15
2022-11-05T20:16:50.293Z,11.77
2022-11-05T20:19:20.066Z,12.04
2022-11-05T20:21:47.779Z,11.44
2022-11-05T20:24:24.052Z,11.77
2022-11-05T20:26:53.024Z,11.26
2022-11-05T20:29:20.653Z,11.44
2022-11-05T20:31:48.471Z,11.79
2022-11-05T20:34:16.024Z,11.77
2022-11-05T20:36:43.629Z,12.01
2022-11-05T20:39:11.951Z,11.29
2022-11-05T20:41:40.856Z,11.33
2022-11-05T20:44:08.447Z,11.49
2022-11-05T20:46:36.181Z,11.50
2022-11-05T20:49:03.806Z,11.42
2022-11-05T20:51:31.475Z,11.90
2022-11-05T20:54:00.692Z,11.47
2022-11-05T20:56:30.367Z,11.84
2022-11-05T20:59:00.494Z,11.53
2022-11-05T21:01:29.984Z,11.33
2022-11-05T21:03:59.528Z,11.70
2022-11-05T21:06:27.518Z,11.77
2022-11-05T21:08:55.357Z,11.76
2022-11-05T21:11:23.190Z,11.50
2022-11-05T21:13:51.104Z,11.65
2022-11-05T21:16:20.847Z,11.60
2022-11-05T21:18:48.930Z,11.68
2022-11-05T21:21:19.425Z,11.82
2022-11-05T21:23:47.050Z,11.65
2022-11-05T21:26:16.927Z,11.43
2022-11-05T21:28:44.605Z,11.87
2022-11-05T21:31:12.408Z,11.46
2022-11-05T21:33:41.665Z,11.62
2022-11-05T21:36:11.591Z,11.91
2022-11-05T21:38:39.836Z,11.72
2022-11-05T21:41:08.755Z,11.63
2022-11-05T21:43:36.371Z,11.57
2022-11-05T21:46:05.289Z,12.02
2022-11-05T21:48:34.385Z,11.40
2022-11-05T21:51:35.464Z,11.47
2022-11-05T21:54:20.506Z,11.84
2022-11-05T21:57:09.800Z,11.66
2022-11-05T21:59:51.907Z,11.20
2022-11-05T22:02:21.596Z,11.39
2022-11-05T22:04:51.168Z,11.18
2022-11-05T22:07:21.571Z,11.52
2022-11-05T22:09:49.841Z,11.07
2022-11-05T22:12:17.592Z,11.06
2022-11-05T22:14:45.253Z,11.09
2022-11-05T22:17:13.609Z,11.13
2022-11-05T22:19:41.180Z,11.22
2022-11-05T22:22:08.820Z,11.28
2022-11-05T22:24:38.233Z,11.27
2022-11-05T22:27:07.890Z,11.38
2022-11-05T22:29:36.705Z,10.88
2022-11-05T22:32:04.953Z,11.03
2022-11-05T22:34:32.574Z,10.84
2022-11-05T22:37:00.268Z,11.09
2022-11-05T22:39:27.990Z,11.34
2022-11-05T22:41:58.370Z,11.54
2022-11-05T22:44:27.914Z,11.62
2022-11-05T22:46:56.067Z,11.71
2022-11-05T22:49:24.016Z,11.39
2022-11-05T22:51:51.830Z,11.26
2022-11-05T22:54:19.631Z,10.95
2022-11-05T22:56:48.187Z,11.35
2022-11-05T22:59:17.424Z,11.43
2022-11-05T23:01:46.173Z,10.73
2022-11-05T23:04:14.916Z,11.36
2022-11-05T23:07:00.815Z,11.26
2022-11-05T23:09:48.730Z,11.33
2022-11-05T23:12:26.322Z,11.26
2022-11-05T23:14:56.755Z,11.02
2022-11-05T23:17:53.320Z,11.29
2022-11-05T23:20:41.434Z,11.05
2022-11-05T23:23:28.648Z,11.01
2022-11-05T23:25:57.875Z,11.30
2022-11-05T23:28:25.610Z,11.33
2022-11-05T23:31:12.321Z,10.83
2022-11-05T23:33:39.920Z,11.24
2022-11-05T23:36:25.630Z,10.97
2022-11-05T23:38:53.245Z,10.78
2022-11-05T23:41:38.429Z,11.06
2022-11-05T23:44:23.862Z,11.18
2022-11-05T23:47:10.432Z,11.03
2022-11-05T23:49:38.025Z,11.15
2022-11-05T23:52:05.699Z,11.43
2022-11-05T23:54:33.277Z,11.52
2022-11-05T23:57:00.862Z,11.60
2022-11-05T23:59:28.435Z,11.65
